sensor_id;sensor_type;location;lat;lon;timestamp;pressure;altitude;pressure_sealevel;temperature;humidity
3668;BME280;24099;47.102;15.440;2022-08-21T00:00:56;96709.34;;;17.94;100.00
3668;BME280;24099;47.102;15.440;2022-08-21T00:03:23;96704.38;;;17.85;100.00
3668;BME280;24099;47.102;15.440;2022-08-21T00:05:51;96701.13;;;17.55;100.00
3668;BME280;24099;47.102;15.440;2022-08-21T00:08:20;96706.34;;;17.50;100.00
3668;BME280;24099;47.102;15.440;2022-08-21T00:10:48;96696.41;;;17.85;100.00
3668;BME280;24099;47.102;15.440;2022-08-21T00:13:18;96698.56;;;17.72;100.00
3668;BME280;24099;47.102;15.440;2022-08-21T00:15:48;96695.56;;;17.68;100.00
3668;BME280;24099;47.102;15.440;2022-08-21T00:18:18;96694.84;;;17.61;100.00
3668;BME280;24099;47.102;15.440;2022-08-21T00:20:47;96695.72;;;17.50;100.00
3668;BME280;24099;47.102;15.440;2022-08-21T00:23:15;96694.19;;;17.54;100.00
3668;BME280;24099;47.102;15.440;2022-08-21T00:25:43;96699.06;;;17.57;100.00
3668;BME280;24099;47.102;15.440;2022-08-21T00:28:12;96692.59;;;17.53;100.00
3668;BME280;24099;47.102;15.440;2022-08-21T00:30:40;96682.28;;;17.56;100.00
3668;BME280;24099;47.102;15.440;2022-08-21T00:33:09;96686.63;;;17.63;100.00
3668;BME280;24099;47.102;15.440;2022-08-21T00:35:41;96686.41;;;17.64;100.00
3668;BME280;24099;47.102;15.440;2022-08-21T00:38:09;96685.09;;;17.78;100.00
3668;BME280;24099;47.102;15.440;2022-08-21T00:40:40;96682.50;;;17.55;100.00
3668;BME280;24099;47.102;15.440;2022-08-21T00:43:11;96681.22;;;17.86;100.00
3668;BME280;24099;47.102;15.440;2022-08-21T00:45:40;96671.41;;;17.58;100.00
3668;BME280;24099;47.102;15.440;2022-08-21T00:48:08;96679.50;;;17.51;100.00
3668;BME280;24099;47.102;15.440;2022-08-21T00:50:42;96672.09;;;17.53;100.00
3668;BME280;24099;47.102;15.440;2022-08-21T00:53:12;96672.00;;;17.48;100.00
3668;BME280;24099;47.102;15.440;2022-08-21T00:55:41;96668.53;;;17.48;100.00
3668;BME280;24099;47.102;15.440;2022-08-21T00:58:11;96662.13;;;17.32;100.00
3668;BME280;24099;47.102;15.440;2022-08-21T01:00:42;96658.59;;;17.43;100.00
3668;BME280;24099;47.102;15.440;2022-08-21T01:03:14;96664.78;;;17.32;100.00
3668;BME280;24099;47.102;15.440;2022-08-21T01:05:44;96659.19;;;17.62;100.00
3668;BME280;24099;47.102;15.440;2022-08-21T01:08:12;96658.25;;;17.40;100.00
3668;BME280;24099;47.102;15.440;2022-08-21T01:10:42;96666.09;;;17.46;100.00
3668;BME280;24099;47.102;15.440;2022-08-21T01:13:13;96660.00;;;17.63;100.00
3668;BME280;24099;47.102;15.440;2022-08-21T01:15:46;96664.19;;;17.58;100.00
3668;BME280;24099;47.102;15.440;2022-08-21T01:18:16;96657.13;;;17.36;100.00
3668;BME280;24099;47.102;15.440;2022-08-21T01:21:01;96656.84;;;17.49;100.00
3668;BME280;24099;47.102;15.440;2022-08-21T01:23:28;96658.16;;;17.63;100.00
3668;BME280;24099;47.102;15.440;2022-08-21T01:25:56;96650.66;;;17.60;100.00
3668;BME280;24099;47.102;15.440;2022-08-21T01:28:23;96655.56;;;17.51;100.00
3668;BME280;24099;47.102;15.440;2022-08-21T01:30:51;96652.41;;;17.66;100.00
3668;BME280;24099;47.102;15.440;2022-08-21T01:33:22;96655.47;;;17.46;100.00
3668;BME280;24099;47.102;15.440;2022-08-21T01:35:51;96647.09;;;17.54;100.00
3668;BME280;24099;47.102;15.440;2022-08-21T01:38:20;96651.97;;;17.58;100.00
3668;BME280;24099;47.102;15.440;2022-08-21T01:40:48;96651.97;;;17.58;100.00
3668;BME280;24099;47.102;15.440;2022-08-21T01:43:15;96650.66;;;17.60;100.00
3668;BME280;24099;47.102;15.440;2022-08-21T01:45:43;96653.88;;;17.62;100.00
3668;BME280;24099;47.102;15.440;2022-08-21T01:48:10;96645.16;;;17.50;100.00
3668;BME280;24099;47.102;15.440;2022-08-21T01:50:38;96651.38;;;17.55;100.00
3668;BME280;24099;47.102;15.440;2022-08-21T01:53:05;96646.78;;;17.51;100.00
3668;BME280;24099;47.102;15.440;2022-08-21T01:55:34;96642.59;;;17.55;100.00
3668;BME280;24099;47.102;15.440;2022-08-21T01:58:02;96635.94;;;17.41;100.00
3668;BME280;24099;47.102;15.440;2022-08-21T02:00:30;96633.13;;;17.47;100.00
3668;BME280;24099;47.102;15.440;2022-08-21T02:02:57;96627.63;;;17.37;100.00
3668;BME280;24099;47.102;15.440;2022-08-21T02:05:26;96642.41;;;17.45;100.00
3668;BME280;24099;47.102;15.440;2022-08-21T02:07:55;96632.81;;;17.61;100.00
3668;BME280;24099;47.102;15.440;2022-08-21T02:10:26;96625.66;;;17.61;100.00
3668;BME280;24099;47.102;15.440;2022-08-21T02:12:56;96627.47;;;17.44;100.00
3668;BME280;24099;47.102;15.440;2022-08-21T02:15:24;96628.38;;;17.49;100.00
3668;BME280;24099;47.102;15.440;2022-08-21T02:17:57;96619.34;;;17.50;100.00
3668;BME280;24099;47.102;15.440;2022-08-21T02:20:29;96626.19;;;17.46;100.00
3668;BME280;24099;47.102;15.440;2022-08-21T02:22:58;96624.78;;;17.27;100.00
3668;BME280;24099;47.102;15.440;2022-08-21T02:25:27;96616.66;;;17.34;100.00
3668;BME280;24099;47.102;15.440;2022-08-21T02:27:58;96610.94;;;17.42;100.00
3668;BME280;24099;47.102;15.440;2022-08-21T02:30:31;96609.63;;;17.28;100.00
3668;BME280;24099;47.102;15.440;2022-08-21T02:33:00;96608.69;;;17.34;100.00
3668;BME280;24099;47.102;15.440;2022-08-21T02:35:28;96615.78;;;17.45;100.00
3668;BME280;24099;47.102;15.440;2022-08-21T02:37:57;96613.53;;;17.37;100.00
3668;BME280;24099;47.102;15.440;2022-08-21T02:40:29;96601.34;;;17.41;100.00
3668;BME280;24099;47.102;15.440;2022-08-21T02:42:59;96601.28;;;17.36;100.00
3668;BME280;24099;47.102;15.440;2022-08-21T02:45:27;96598.75;;;17.29;100.00
3668;BME280;24099;47.102;15.440;2022-08-21T02:47:59;96593.44;;;17.29;100.00
3668;BME280;24099;47.102;15.440;2022-08-21T02:50:30;96597.91;;;17.12;100.00
3668;BME280;24099;47.102;15.440;2022-08-21T02:52:58;96591.31;;;17.14;100.00
3668;BME280;24099;47.102;15.440;2022-08-21T02:55:29;96597.19;;;17.16;100.00
3668;BME280;24099;47.102;15.440;2022-08-21T02:57:59;96595.88;;;17.19;100.00
3668;BME280;24099;47.102;15.440;2022-08-21T03:00:30;96603.38;;;17.22;100.00
3668;BME280;24099;47.102;15.440;2022-08-21T03:02:59;96596.31;;;16.99;100.00
3668;BME280;24099;47.102;15.440;2022-08-21T03:05:29;96604.97;;;17.06;100.00
3668;BME280;24099;47.102;15.440;2022-08-21T03:07:58;96599.31;;;17.03;100.00
3668;BME280;24099;47.102;15.440;2022-08-21T03:10:27;96597.44;;;17.15;100.00
3668;BME280;24099;47.102;15.440;2022-08-21T03:12:55;96597.44;;;17.03;100.00
3668;BME280;24099;47.102;15.440;2022-08-21T03:15:24;96595.94;;;17.07;100.00
3668;BME280;24099;47.102;15.440;2022-08-21T03:17:52;96600.25;;;17.25;100.00
3668;BME280;24099;47.102;15.440;2022-08-21T03:20:24;96597.31;;;17.10;100.00
3668;BME280;24099;47.102;15.440;2022-08-21T03:22:52;96586.34;;;17.06;100.00
3668;BME280;24099;47.102;15.440;2022-08-21T03:25:21;96593.97;;;17.14;100.00
3668;BME280;24099;47.102;15.440;2022-08-21T03:27:50;96598.03;;;17.05;100.00
3668;BME280;24099;47.102;15.440;2022-08-21T03:30:20;96591.53;;;17.13;100.00
3668;BME280;24099;47.102;15.440;2022-08-21T03:32:50;96588.09;;;17.01;100.00
3668;BME280;24099;47.102;15.440;2022-08-21T03:35:19;96602.19;;;17.01;100.00
3668;BME280;24099;47.102;15.440;2022-08-21T03:37:47;96593.22;;;16.91;100.00
3668;BME280;24099;47.102;15.440;2022-08-21T03:40:17;96604.56;;;16.63;100.00
3668;BME280;24099;47.102;15.440;2022-08-21T03:42:46;96603.44;;;16.70;100.00
3668;BME280;24099;47.102;15.440;2022-08-21T03:45:16;96604.81;;;16.73;100.00
3668;BME280;24099;47.102;15.440;2022-08-21T03:47:54;96617.88;;;16.39;100.00
3668;BME280;24099;47.102;15.440;2022-08-21T03:50:24;96604.25;;;16.47;100.00
3668;BME280;24099;47.102;15.440;2022-08-21T03:52:52;96603.94;;;16.32;100.00
3668;BME280;24099;47.102;15.440;2022-08-21T03:55:20;96601.84;;;16.34;100.00
3668;BME280;24099;47.102;15.440;2022-08-21T03:57:48;96610.72;;;16.28;100.00
3668;BME280;24099;47.102;15.440;2022-08-21T04:00:16;96613.63;;;16.15;100.00
3668;BME280;24099;47.102;15.440;2022-08-21T04:02:45;96610.72;;;15.93;100.00
3668;BME280;24099;47.102;15.440;2022-08-21T04:05:16;96611.06;;;16.20;100.00
3668;BME280;24099;47.102;15.440;2022-08-21T04:07:56;96607.50;;;15.91;100.00
3668;BME280;24099;47.102;15.440;2022-08-21T04:10:25;96612.31;;;15.82;100.00
3668;BME280;24099;47.102;15.440;2022-08-21T04:12:53;96613.34;;;15.81;100.00
3668;BME280;24099;47.102;15.440;2022-08-21T04:15:22;96610.59;;;15.76;100.00
3668;BME280;24099;47.102;15.440;2022-08-21T04:17:50;96615.94;;;16.11;100.00
3668;BME280;24099;47.102;15.440;2022-08-21T04:20:20;96609.47;;;15.96;100.00
3668;BME280;24099;47.102;15.440;2022-08-21T04:22:48;96601.00;;;15.99;100.00
3668;BME280;24099;47.102;15.440;2022-08-21T04:25:17;96605.97;;;15.83;100.00
3668;BME280;24099;47.102;15.440;2022-08-21T04:27:45;96612.34;;;16.06;100.00
3668;BME280;24099;47.102;15.440;2022-08-21T04:30:14;96613.50;;;15.98;100.00
3668;BME280;24099;47.102;15.440;2022-08-21T04:32:42;96607.94;;;16.00;100.00
3668;BME280;24099;47.102;15.440;2022-08-21T04:35:11;96610.84;;;16.10;100.00
3668;BME280;24099;47.102;15.440;2022-08-21T04:37:41;96603.22;;;16.02;100.00
3668;BME280;24099;47.102;15.440;2022-08-21T04:40:10;96614.28;;;15.87;100.00
3668;BME280;24099;47.102;15.440;2022-08-21T04:42:44;96614.78;;;16.07;100.00
3668;BME280;24099;47.102;15.440;2022-08-21T04:45:18;96626.06;;;16.03;100.00
3668;BME280;24099;47.102;15.440;2022-08-21T04:47:49;96627.38;;;16.12;100.00
3668;BME280;24099;47.102;15.440;2022-08-21T04:50:18;96631.75;;;16.18;100.00
3668;BME280;24099;47.102;15.440;2022-08-21T04:53:05;96636.84;;;16.31;100.00
3668;BME280;24099;47.102;15.440;2022-08-21T04:55:32;96631.06;;;16.34;100.00
3668;BME280;24099;47.102;15.440;2022-08-21T04:58:00;96638.22;;;16.34;100.00
3668;BME280;24099;47.102;15.440;2022-08-21T05:00:28;96638.44;;;16.44;100.00
3668;BME280;24099;47.102;15.440;2022-08-21T05:02:56;96639.59;;;16.48;100.00
3668;BME280;24099;47.102;15.440;2022-08-21T05:05:25;96635.09;;;16.48;100.00
3668;BME280;24099;47.102;15.440;2022-08-21T05:07:56;96633.59;;;16.52;100.00
3668;BME280;24099;47.102;15.440;2022-08-21T05:10:27;96634.63;;;16.63;100.00
3668;BME280;24099;47.102;15.440;2022-08-21T05:12:55;96633.94;;;16.68;100.00
3668;BME280;24099;47.102;15.440;2022-08-21T05:15:22;96626.09;;;16.73;100.00
3668;BME280;24099;47.102;15.440;2022-08-21T05:17:50;96636.69;;;16.84;100.00
3668;BME280;24099;47.102;15.440;2022-08-21T05:20:18;96633.09;;;16.91;100.00
3668;BME280;24099;47.102;15.440;2022-08-21T05:22:45;96642.56;;;16.98;100.00
3668;BME280;24099;47.102;15.440;2022-08-21T05:25:13;96645.19;;;17.10;100.00
3668;BME280;24099;47.102;15.440;2022-08-21T05:27:42;96651.50;;;17.20;100.00
3668;BME280;24099;47.102;15.440;2022-08-21T05:30:11;96659.00;;;17.35;100.00
3668;BME280;24099;47.102;15.440;2022-08-21T05:32:38;96660.09;;;17.39;100.00
3668;BME280;24099;47.102;15.440;2022-08-21T05:35:07;96658.47;;;17.50;100.00
3668;BME280;24099;47.102;15.440;2022-08-21T05:37:35;96660.88;;;17.51;100.00
3668;BME280;24099;47.102;15.440;2022-08-21T05:40:05;96659.34;;;17.67;100.00
3668;BME280;24099;47.102;15.440;2022-08-21T05:42:33;96656.28;;;17.75;100.00
3668;BME280;24099;47.102;15.440;2022-08-21T05:45:02;96659.06;;;17.97;100.00
3668;BME280;24099;47.102;15.440;2022-08-21T05:47:30;96661.78;;;18.19;100.00
3668;BME280;24099;47.102;15.440;2022-08-21T05:49:57;96659.41;;;18.17;100.00
3668;BME280;24099;47.102;15.440;2022-08-21T05:52:25;96667.28;;;18.46;100.00
3668;BME280;24099;47.102;15.440;2022-08-21T05:54:52;96677.53;;;18.71;100.00
3668;BME280;24099;47.102;15.440;2022-08-21T05:57:20;96682.72;;;18.99;100.00
3668;BME280;24099;47.102;15.440;2022-08-21T05:59:48;96691.41;;;19.11;100.00
3668;BME280;24099;47.102;15.440;2022-08-21T06:02:19;96686.16;;;19.16;100.00
3668;BME280;24099;47.102;15.440;2022-08-21T06:04:47;96695.81;;;19.22;100.00
3668;BME280;24099;47.102;15.440;2022-08-21T06:07:15;96681.50;;;19.28;100.00
3668;BME280;24099;47.102;15.440;2022-08-21T06:09:43;96693.34;;;19.59;100.00
3668;BME280;24099;47.102;15.440;2022-08-21T06:12:12;96697.16;;;19.90;100.00
3668;BME280;24099;47.102;15.440;2022-08-21T06:14:41;96704.88;;;19.65;100.00
3668;BME280;24099;47.102;15.440;2022-08-21T06:17:11;96697.03;;;19.80;100.00
3668;BME280;24099;47.102;15.440;2022-08-21T06:19:42;96696.44;;;19.73;100.00
3668;BME280;24099;47.102;15.440;2022-08-21T06:22:10;96700.38;;;19.92;100.00
3668;BME280;24099;47.102;15.440;2022-08-21T06:24:37;96714.06;;;20.01;100.00
3668;BME280;24099;47.102;15.440;2022-08-21T06:27:05;96715.06;;;20.22;100.00
3668;BME280;24099;47.102;15.440;2022-08-21T06:29:33;96711.13;;;20.03;100.00
3668;BME280;24099;47.102;15.440;2022-08-21T06:32:02;96702.56;;;20.01;100.00
3668;BME280;24099;47.102;15.440;2022-08-21T06:34:30;96708.56;;;20.13;100.00
3668;BME280;24099;47.102;15.440;2022-08-21T06:36:59;96699.69;;;20.07;100.00
3668;BME280;24099;47.102;15.440;2022-08-21T06:39:26;96703.09;;;20.29;100.00
3668;BME280;24099;47.102;15.440;2022-08-21T06:41:54;96715.47;;;20.36;100.00
3668;BME280;24099;47.102;15.440;2022-08-21T06:44:28;96714.75;;;20.45;100.00
3668;BME280;24099;47.102;15.440;2022-08-21T06:46:56;96713.09;;;20.39;100.00
3668;BME280;24099;47.102;15.440;2022-08-21T06:49:23;96716.72;;;20.28;100.00
3668;BME280;24099;47.102;15.440;2022-08-21T06:51:51;96714.75;;;20.45;100.00
3668;BME280;24099;47.102;15.440;2022-08-21T06:54:20;96723.94;;;20.54;100.00
3668;BME280;24099;47.102;15.440;2022-08-21T06:56:47;96724.94;;;20.48;100.00
3668;BME280;24099;47.102;15.440;2022-08-21T06:59:14;96728.47;;;20.54;100.00
3668;BME280;24099;47.102;15.440;2022-08-21T07:01:42;96722.97;;;20.71;100.00
3668;BME280;24099;47.102;15.440;2022-08-21T07:04:10;96731.97;;;20.59;100.00
3668;BME280;24099;47.102;15.440;2022-08-21T07:06:37;96727.59;;;20.48;100.00
3668;BME280;24099;47.102;15.440;2022-08-21T07:09:05;96728.66;;;20.47;100.00
3668;BME280;24099;47.102;15.440;2022-08-21T07:11:35;96723.63;;;20.51;100.00
3668;BME280;24099;47.102;15.440;2022-08-21T07:14:04;96724.97;;;20.53;100.00
3668;BME280;24099;47.102;15.440;2022-08-21T07:16:31;96730.28;;;20.48;100.00
3668;BME280;24099;47.102;15.440;2022-08-21T07:18:59;96734.38;;;20.61;100.00
3668;BME280;24099;47.102;15.440;2022-08-21T07:21:27;96738.38;;;20.58;100.00
3668;BME280;24099;47.102;15.440;2022-08-21T07:23:54;96732.19;;;20.53;100.00
3668;BME280;24099;47.102;15.440;2022-08-21T07:26:23;96741.59;;;20.55;100.00
3668;BME280;24099;47.102;15.440;2022-08-21T07:28:53;96745.44;;;20.70;100.00
3668;BME280;24099;47.102;15.440;2022-08-21T07:31:23;96737.63;;;20.63;100.00
3668;BME280;24099;47.102;15.440;2022-08-21T07:33:51;96738.41;;;20.63;100.00
3668;BME280;24099;47.102;15.440;2022-08-21T07:36:19;96738.94;;;20.60;100.00
3668;BME280;24099;47.102;15.440;2022-08-21T07:38:46;96743.81;;;20.69;100.00
3668;BME280;24099;47.102;15.440;2022-08-21T07:41:19;96737.34;;;20.64;100.00
3668;BME280;24099;47.102;15.440;2022-08-21T07:43:47;96739.47;;;20.62;100.00
3668;BME280;24099;47.102;15.440;2022-08-21T07:46:16;96733.31;;;20.62;100.00
3668;BME280;24099;47.102;15.440;2022-08-21T07:48:44;96734.81;;;20.48;100.00
3668;BME280;24099;47.102;15.440;2022-08-21T07:51:15;96732.81;;;20.65;100.00
3668;BME280;24099;47.102;15.440;2022-08-21T07:53:48;96731.75;;;20.66;100.00
3668;BME280;24099;47.102;15.440;2022-08-21T07:56:16;96737.28;;;20.54;100.00
3668;BME280;24099;47.102;15.440;2022-08-21T07:58:44;96736.50;;;20.54;100.00
3668;BME280;24099;47.102;15.440;2022-08-21T08:01:12;96733.50;;;20.50;100.00
3668;BME280;24099;47.102;15.440;2022-08-21T08:03:41;96740.47;;;20.51;100.00
3668;BME280;24099;47.102;15.440;2022-08-21T08:06:09;96738.41;;;20.63;100.00
3668;BME280;24099;47.102;15.440;2022-08-21T08:08:38;96734.16;;;20.68;100.00
3668;BME280;24099;47.102;15.440;2022-08-21T08:11:07;96728.09;;;20.77;100.00
3668;BME280;24099;47.102;15.440;2022-08-21T08:13:39;96728.66;;;20.84;100.00
3668;BME280;24099;47.102;15.440;2022-08-21T08:16:07;96733.50;;;20.87;100.00
3668;BME280;24099;47.102;15.440;2022-08-21T08:18:35;96729.31;;;20.96;100.00
3668;BME280;24099;47.102;15.440;2022-08-21T08:21:05;96719.91;;;20.94;100.00
3668;BME280;24099;47.102;15.440;2022-08-21T08:23:32;96724.75;;;21.02;100.00
3668;BME280;24099;47.102;15.440;2022-08-21T08:26:01;96718.94;;;21.10;100.00
3668;BME280;24099;47.102;15.440;2022-08-21T08:28:31;96721.06;;;21.08;100.00
3668;BME280;24099;47.102;15.440;2022-08-21T08:30:59;96720.00;;;21.09;100.00
3668;BME280;24099;47.102;15.440;2022-08-21T08:33:27;96724.84;;;21.12;100.00
3668;BME280;24099;47.102;15.440;2022-08-21T08:35:55;96721.06;;;21.08;100.00
3668;BME280;24099;47.102;15.440;2022-08-21T08:38:25;96721.59;;;21.10;100.00
3668;BME280;24099;47.102;15.440;2022-08-21T08:41:05;96726.19;;;21.15;100.00
3668;BME280;24099;47.102;15.440;2022-08-21T08:43:34;96715.50;;;21.20;100.00
3668;BME280;24099;47.102;15.440;2022-08-21T08:46:08;96715.81;;;21.23;100.00
3668;BME280;24099;47.102;15.440;2022-08-21T08:48:47;96711.84;;;21.31;100.00
3668;BME280;24099;47.102;15.440;2022-08-21T08:51:21;96710.47;;;21.28;100.00
3668;BME280;24099;47.102;15.440;2022-08-21T08:53:55;96717.47;;;21.40;100.00
3668;BME280;24099;47.102;15.440;2022-08-21T08:56:29;96716.44;;;21.46;100.00
3668;BME280;24099;47.102;15.440;2022-08-21T08:59:02;96724.19;;;21.37;100.00
3668;BME280;24099;47.102;15.440;2022-08-21T09:01:34;96726.06;;;21.42;100.00
3668;BME280;24099;47.102;15.440;2022-08-21T09:04:01;96725.25;;;21.41;100.00
3668;BME280;24099;47.102;15.440;2022-08-21T09:06:59;96725.03;;;21.48;100.00
3668;BME280;24099;47.102;15.440;2022-08-21T09:09:53;96728.25;;;21.50;100.00
3668;BME280;24099;47.102;15.440;2022-08-21T09:12:39;96730.59;;;21.36;100.00
3668;BME280;24099;47.102;15.440;2022-08-21T09:15:19;96729.31;;;21.49;100.00
3668;BME280;24099;47.102;15.440;2022-08-21T09:21:02;96726.16;;;21.67;100.00
3668;BME280;24099;47.102;15.440;2022-08-21T09:23:42;96728.06;;;21.77;100.00
3668;BME280;24099;47.102;15.440;2022-08-21T09:26:16;96715.75;;;21.76;100.00
3668;BME280;24099;47.102;15.440;2022-08-21T09:28:45;96715.44;;;21.67;100.00
3668;BME280;24099;47.102;15.440;2022-08-21T09:31:24;96719.44;;;21.64;100.00
3668;BME280;24099;47.102;15.440;2022-08-21T09:33:58;96708.47;;;21.66;100.00
3668;BME280;24099;47.102;15.440;2022-08-21T09:36:37;96699.63;;;21.65;100.00
3668;BME280;24099;47.102;15.440;2022-08-21T09:39:05;96699.38;;;21.72;100.00
3668;BME280;24099;47.102;15.440;2022-08-21T09:41:36;96701.00;;;21.73;100.00
3668;BME280;24099;47.102;15.440;2022-08-21T09:44:06;96698.59;;;21.77;100.00
3668;BME280;24099;47.102;15.440;2022-08-21T09:46:34;96691.63;;;21.76;100.00
3668;BME280;24099;47.102;15.440;2022-08-21T09:49:04;96697.00;;;21.86;100.00
3668;BME280;24099;47.102;15.440;2022-08-21T09:51:34;96690.31;;;21.88;100.00
3668;BME280;24099;47.102;15.440;2022-08-21T09:54:15;96694.09;;;21.97;100.00
3668;BME280;24099;47.102;15.440;2022-08-21T09:56:58;96685.53;;;22.00;100.00
3668;BME280;24099;47.102;15.440;2022-08-21T09:59:45;96692.50;;;22.07;100.00
3668;BME280;24099;47.102;15.440;2022-08-21T10:02:27;96688.22;;;22.46;100.00
3668;BME280;24099;47.102;15.440;2022-08-21T10:04:59;96690.63;;;22.43;100.00
3668;BME280;24099;47.102;15.440;2022-08-21T10:07:31;96690.38;;;22.44;100.00
3668;BME280;24099;47.102;15.440;2022-08-21T10:10:03;96687.44;;;22.56;100.00
3668;BME280;24099;47.102;15.440;2022-08-21T10:12:44;96683.66;;;22.72;100.00
3668;BME280;24099;47.102;15.440;2022-08-21T10:15:20;96683.38;;;22.94;100.00
3668;BME280;24099;47.102;15.440;2022-08-21T10:17:59;96675.56;;;22.97;100.00
3668;BME280;24099;47.102;15.440;2022-08-21T10:20:35;96678.75;;;23.10;100.00
3668;BME280;24099;47.102;15.440;2022-08-21T10:23:21;96665.00;;;23.26;100.00
3668;BME280;24099;47.102;15.440;2022-08-21T10:26:04;96668.13;;;23.44;100.00
3668;BME280;24099;47.102;15.440;2022-08-21T10:28:46;96661.97;;;23.43;100.00
3668;BME280;24099;47.102;15.440;2022-08-21T10:31:24;96674.19;;;23.05;100.00
3668;BME280;24099;47.102;15.440;2022-08-21T10:34:15;96668.75;;;23.20;100.00
3668;BME280;24099;47.102;15.440;2022-08-21T10:36:52;96667.97;;;23.20;100.00
3668;BME280;24099;47.102;15.440;2022-08-21T10:39:31;96665.25;;;23.30;100.00
3668;BME280;24099;47.102;15.440;2022-08-21T10:42:13;96666.28;;;23.39;100.00
3668;BME280;24099;47.102;15.440;2022-08-21T10:44:53;96659.00;;;23.45;100.00
3668;BME280;24099;47.102;15.440;2022-08-21T10:47:32;96654.97;;;23.42;100.00
3668;BME280;24099;47.102;15.440;2022-08-21T10:50:11;96657.75;;;23.27;100.00
3668;BME280;24099;47.102;15.440;2022-08-21T10:52:57;96648.88;;;23.31;100.00
3668;BME280;24099;47.102;15.440;2022-08-21T10:55:33;96646.63;;;23.44;100.00
3668;BME280;24099;47.102;15.440;2022-08-21T10:58:08;96639.03;;;23.66;100.00
3668;BME280;24099;47.102;15.440;2022-08-21T11:00:43;96646.09;;;23.52;100.00
3668;BME280;24099;47.102;15.440;2022-08-21T11:03:17;96646.09;;;23.57;100.00
3668;BME280;24099;47.102;15.440;2022-08-21T11:05:52;96642.69;;;23.80;100.00
3668;BME280;24099;47.102;15.440;2022-08-21T11:08:27;96641.94;;;23.75;96.42
3668;BME280;24099;47.102;15.440;2022-08-21T11:11:01;96647.72;;;23.97;99.95
3668;BME280;24099;47.102;15.440;2022-08-21T11:13:37;96647.66;;;24.02;99.07
3668;BME280;24099;47.102;15.440;2022-08-21T11:16:15;96650.31;;;23.63;95.84
3668;BME280;24099;47.102;15.440;2022-08-21T11:18:49;96650.75;;;23.80;100.00
3668;BME280;24099;47.102;15.440;2022-08-21T11:21:35;96647.69;;;23.48;96.15
3668;BME280;24099;47.102;15.440;2022-08-21T11:24:22;96646.91;;;23.47;98.37
3668;BME280;24099;47.102;15.440;2022-08-21T11:26:58;96643.03;;;23.68;100.00
3668;BME280;24099;47.102;15.440;2022-08-21T11:29:29;96646.00;;;23.72;97.11
3668;BME280;24099;47.102;15.440;2022-08-21T11:35:12;96635.81;;;23.64;95.64
3668;BME280;24099;47.102;15.440;2022-08-21T11:38:06;96634.19;;;23.68;98.17
3668;BME280;24099;47.102;15.440;2022-08-21T11:40:51;96638.44;;;23.74;95.45
3668;BME280;24099;47.102;15.440;2022-08-21T11:43:37;96635.16;;;23.82;99.79
3668;BME280;24099;47.102;15.440;2022-08-21T11:46:17;96634.09;;;23.78;95.34
3668;BME280;24099;47.102;15.440;2022-08-21T11:49:03;96622.13;;;23.99;93.22
3668;BME280;24099;47.102;15.440;2022-08-21T11:51:38;96633.75;;;24.29;96.92
3668;BME280;24099;47.102;15.440;2022-08-21T11:54:19;96632.94;;;24.28;91.21
3668;BME280;24099;47.102;15.440;2022-08-21T11:56:55;96632.38;;;24.60;91.67
3668;BME280;24099;47.102;15.440;2022-08-21T11:59:32;96628.94;;;24.55;88.84
3668;BME280;24099;47.102;15.440;2022-08-21T12:02:15;96624.91;;;24.57;91.78
3668;BME280;24099;47.102;15.440;2022-08-21T12:04:48;96633.28;;;24.51;86.70
3668;BME280;24099;47.102;15.440;2022-08-21T12:07:33;96628.72;;;24.51;89.21
3668;BME280;24099;47.102;15.440;2022-08-21T12:10:04;96619.91;;;24.69;85.97
3668;BME280;24099;47.102;15.440;2022-08-21T12:12:34;96626.78;;;24.81;87.80
3668;BME280;24099;47.102;15.440;2022-08-21T12:15:26;96620.53;;;24.61;87.10
3668;BME280;24099;47.102;15.440;2022-08-21T12:18:01;96627.25;;;24.35;86.78
3668;BME280;24099;47.102;15.440;2022-08-21T12:21:02;96631.44;;;24.12;87.09
3668;BME280;24099;47.102;15.440;2022-08-21T12:23:32;96624.09;;;24.28;89.69
3668;BME280;24099;47.102;15.440;2022-08-21T12:26:23;96620.59;;;24.22;98.93
3668;BME280;24099;47.102;15.440;2022-08-21T12:29:02;96626.09;;;24.07;93.39
3668;BME280;24099;47.102;15.440;2022-08-21T12:31:29;96619.34;;;24.44;91.64
3668;BME280;24099;47.102;15.440;2022-08-21T12:34:01;96616.97;;;24.08;97.43
3668;BME280;24099;47.102;15.440;2022-08-21T12:36:45;96614.97;;;24.19;97.15
3668;BME280;24099;47.102;15.440;2022-08-21T12:39:21;96612.25;;;24.29;92.31
3668;BME280;24099;47.102;15.440;2022-08-21T12:41:55;96615.41;;;24.36;90.97
3668;BME280;24099;47.102;15.440;2022-08-21T12:44:28;96609.41;;;24.10;93.49
3668;BME280;24099;47.102;15.440;2022-08-21T12:47:02;96611.38;;;23.99;90.41
3668;BME280;24099;47.102;15.440;2022-08-21T12:49:35;96605.38;;;24.13;92.13
3668;BME280;24099;47.102;15.440;2022-08-21T12:52:11;96599.47;;;24.11;100.00
3668;BME280;24099;47.102;15.440;2022-08-21T12:54:43;96612.88;;;24.16;99.54
3668;BME280;24099;47.102;15.440;2022-08-21T12:57:20;96600.56;;;24.04;98.48
3668;BME280;24099;47.102;15.440;2022-08-21T12:59:58;96605.00;;;24.19;99.03
3668;BME280;24099;47.102;15.440;2022-08-21T13:02:30;96604.72;;;24.26;92.07
3668;BME280;24099;47.102;15.440;2022-08-21T13:05:03;96608.22;;;24.26;91.30
3668;BME280;24099;47.102;15.440;2022-08-21T13:07:35;96620.44;;;24.09;91.02
3668;BME280;24099;47.102;15.440;2022-08-21T13:10:14;96614.41;;;24.22;87.53
3668;BME280;24099;47.102;15.440;2022-08-21T13:12:44;96613.06;;;24.24;92.05
3668;BME280;24099;47.102;15.440;2022-08-21T13:15:12;96612.34;;;24.14;86.63
3668;BME280;24099;47.102;15.440;2022-08-21T13:17:44;96614.59;;;24.35;91.95
3668;BME280;24099;47.102;15.440;2022-08-21T13:20:22;96618.47;;;24.24;90.62
3668;BME280;24099;47.102;15.440;2022-08-21T13:22:52;96618.19;;;24.26;91.12